Time;durP1;ratioP1;P1;durP2;ratioP2;P2;SDS_P1;SDS_P2;PMS_P1;PMS_P2;Temp;Humidity;BMP_temperature;BMP_pressure;BME280_temperature;BME280_humidity;BME280_pressure;Samples;Min_cycle;Max_cycle;Signal;HPM_P1;HPM_P2
2021/10/07 00:00:46;;;;;;;1.73;1.33;;;8.00;99.90;;;;;;4965000;28;20193;-70
2021/10/07 00:03:11;;;;;;;2.20;1.37;;;8.00;99.90;;;;;;4964289;28;20185;-69
2021/10/07 00:05:37;;;;;;;1.90;1.50;;;8.00;99.90;;;;;;4963765;28;20319;-67
2021/10/07 00:08:04;;;;;;;1.67;1.43;;;7.90;99.90;;;;;;4974600;28;20620;-70
2021/10/07 00:10:30;;;;;;;2.30;1.90;;;7.90;99.90;;;;;;4965109;28;20181;-67
2021/10/07 00:12:56;;;;;;;2.20;1.67;;;7.80;99.90;;;;;;4965699;28;20700;-67
2021/10/07 00:15:21;;;;;;;1.63;1.37;;;7.80;99.90;;;;;;4968992;28;20184;-69
2021/10/07 00:17:47;;;;;;;1.67;1.40;;;7.80;99.90;;;;;;4972157;28;20213;-68
2021/10/07 00:20:15;;;;;;;2.63;1.80;;;7.70;99.90;;;;;;4968623;28;20239;-69
2021/10/07 00:22:41;;;;;;;2.73;1.50;;;7.70;99.90;;;;;;4967574;28;20205;-69
2021/10/07 00:25:08;;;;;;;2.30;1.77;;;7.60;99.90;;;;;;4968532;28;20274;-71
2021/10/07 00:27:37;;;;;;;2.20;1.60;;;7.60;99.90;;;;;;4973614;28;20196;-68
2021/10/07 00:30:10;;;;;;;2.43;1.63;;;7.70;99.90;;;;;;4968592;28;20195;-67
2021/10/07 00:32:40;;;;;;;1.67;1.53;;;7.60;99.90;;;;;;4967286;28;20254;-68
2021/10/07 00:35:33;;;;;;;1.87;1.70;;;7.50;99.90;;;;;;4972770;28;20180;-69
2021/10/07 00:40:23;;;;;;;2.07;1.87;;;7.40;99.90;;;;;;4968422;28;20180;-69
2021/10/07 00:42:49;;;;;;;2.07;1.90;;;7.30;99.90;;;;;;4969661;28;20323;-69
2021/10/07 00:45:14;;;;;;;3.33;1.80;;;7.30;99.90;;;;;;4968728;28;20893;-70
2021/10/07 00:47:40;;;;;;;2.23;1.87;;;7.30;99.90;;;;;;4966378;28;20548;-71
2021/10/07 00:50:06;;;;;;;2.03;1.83;;;7.30;99.90;;;;;;4967804;28;20189;-70
2021/10/07 00:52:32;;;;;;;2.17;1.97;;;7.30;99.90;;;;;;4966958;28;20209;-68
2021/10/07 00:54:58;;;;;;;2.20;1.80;;;7.20;99.90;;;;;;4969274;28;20184;-71
2021/10/07 00:57:24;;;;;;;3.10;2.27;;;7.30;99.90;;;;;;4972023;28;20971;-71
2021/10/07 00:59:51;;;;;;;2.07;1.87;;;7.20;99.90;;;;;;4967438;28;20193;-70
2021/10/07 01:02:18;;;;;;;2.00;1.83;;;7.30;99.90;;;;;;4966799;28;20480;-66
2021/10/07 01:04:44;;;;;;;2.23;1.90;;;7.20;99.90;;;;;;4967729;28;20312;-69
2021/10/07 01:07:11;;;;;;;5.47;2.13;;;7.20;99.90;;;;;;4967485;28;20633;-69
2021/10/07 01:09:39;;;;;;;2.33;2.13;;;7.10;99.90;;;;;;4967433;28;20402;-69
2021/10/07 01:12:06;;;;;;;3.33;1.60;;;7.10;99.90;;;;;;4966917;28;20358;-69
2021/10/07 01:14:47;;;;;;;1.80;1.70;;;7.10;99.90;;;;;;4967418;28;20193;-67
2021/10/07 01:17:15;;;;;;;2.17;1.80;;;7.10;99.90;;;;;;4968413;28;20270;-67
2021/10/07 01:19:42;;;;;;;1.53;1.43;;;7.20;99.90;;;;;;4967279;28;20192;-69
2021/10/07 01:22:08;;;;;;;2.80;1.50;;;7.20;99.90;;;;;;4967562;28;20205;-69
2021/10/07 01:24:34;;;;;;;3.33;1.70;;;7.20;99.90;;;;;;4971398;28;20185;-67
2021/10/07 01:27:00;;;;;;;1.90;1.70;;;7.20;99.90;;;;;;4970088;28;20275;-70
2021/10/07 01:29:26;;;;;;;4.47;1.80;;;7.20;99.90;;;;;;4967115;28;20299;-71
2021/10/07 01:31:52;;;;;;;2.00;1.80;;;7.10;99.90;;;;;;4964724;28;20228;-69
2021/10/07 01:34:25;;;;;;;4.90;1.87;;;7.10;99.90;;;;;;4968428;28;20247;-68
2021/10/07 01:36:52;;;;;;;1.83;1.73;;;7.10;99.90;;;;;;4966871;28;20209;-71
2021/10/07 01:39:19;;;;;;;1.90;1.70;;;7.10;99.90;;;;;;4966932;28;20196;-70
2021/10/07 01:41:44;;;;;;;3.13;1.80;;;7.10;99.90;;;;;;4967699;28;20559;-67
2021/10/07 01:44:10;;;;;;;1.90;1.70;;;7.10;99.90;;;;;;4968708;28;20433;-67
2021/10/07 01:46:36;;;;;;;2.83;1.73;;;7.20;99.90;;;;;;4968002;28;20527;-69
2021/10/07 01:49:02;;;;;;;2.40;2.00;;;7.20;99.90;;;;;;4973907;28;20251;-69
2021/10/07 01:51:28;;;;;;;2.77;2.00;;;7.10;99.90;;;;;;4964854;28;20205;-67
2021/10/07 01:53:53;;;;;;;2.33;2.13;;;7.10;99.90;;;;;;4966204;28;20189;-67
2021/10/07 01:56:19;;;;;;;2.60;1.63;;;7.00;99.90;;;;;;4966882;28;20223;-71
2021/10/07 01:58:44;;;;;;;3.00;2.00;;;6.90;99.90;;;;;;4970612;28;20181;-66
2021/10/07 02:01:10;;;;;;;2.23;1.77;;;6.80;99.90;;;;;;4966631;28;20219;-70
2021/10/07 02:03:36;;;;;;;3.40;2.30;;;6.80;99.90;;;;;;4965699;28;20264;-68
2021/10/07 02:06:01;;;;;;;4.03;2.20;;;6.70;99.90;;;;;;4968787;28;20625;-70
2021/10/07 02:08:27;;;;;;;2.67;2.10;;;6.70;99.90;;;;;;4969936;28;20246;-69
2021/10/07 02:10:53;;;;;;;2.57;2.20;;;6.70;99.90;;;;;;4966113;28;20660;-70
2021/10/07 02:13:18;;;;;;;2.43;2.23;;;6.80;99.90;;;;;;4965688;28;20192;-67
2021/10/07 02:15:44;;;;;;;2.53;2.33;;;6.70;99.90;;;;;;4973996;28;20274;-69
2021/10/07 02:18:10;;;;;;;3.87;2.23;;;6.70;99.90;;;;;;4964651;28;20177;-71
2021/10/07 02:20:37;;;;;;;2.20;2.00;;;6.70;99.90;;;;;;4966183;28;20169;-68
2021/10/07 02:23:03;;;;;;;2.30;2.10;;;6.70;99.90;;;;;;4965346;28;20185;-70
2021/10/07 02:25:28;;;;;;;2.57;2.13;;;6.70;99.90;;;;;;4966405;28;20184;-67
2021/10/07 02:27:54;;;;;;;2.67;1.80;;;6.70;99.90;;;;;;4965871;28;20236;-67
2021/10/07 02:30:20;;;;;;;2.43;2.23;;;6.70;99.90;;;;;;4966261;28;20200;-69
2021/10/07 02:32:46;;;;;;;3.03;2.00;;;6.70;99.90;;;;;;4964943;28;20279;-69
2021/10/07 02:35:12;;;;;;;3.87;2.00;;;6.70;99.90;;;;;;4966312;28;20200;-69
2021/10/07 02:37:38;;;;;;;2.53;2.33;;;6.70;99.90;;;;;;4965629;28;20271;-67
2021/10/07 02:40:05;;;;;;;3.83;2.37;;;6.70;99.90;;;;;;4965955;28;20971;-70
2021/10/07 02:42:31;;;;;;;2.97;2.60;;;6.70;99.90;;;;;;4965841;28;20205;-68
2021/10/07 02:44:57;;;;;;;3.40;2.50;;;6.70;99.90;;;;;;4965591;28;20472;-69
2021/10/07 02:47:22;;;;;;;2.27;2.07;;;6.80;99.90;;;;;;4965915;28;20181;-70
2021/10/07 02:49:48;;;;;;;3.40;2.03;;;6.80;99.90;;;;;;4967076;28;20268;-67
2021/10/07 02:52:13;;;;;;;3.43;2.50;;;6.80;99.90;;;;;;4966734;28;20247;-69
2021/10/07 02:54:39;;;;;;;3.03;2.00;;;6.80;99.90;;;;;;4965539;28;20641;-68
2021/10/07 02:57:05;;;;;;;3.93;2.40;;;6.70;99.90;;;;;;4965881;28;20220;-69
2021/10/07 02:59:30;;;;;;;3.50;2.43;;;6.70;99.90;;;;;;4964066;28;20243;-69
2021/10/07 03:01:56;;;;;;;4.90;2.83;;;6.80;99.90;;;;;;4964586;28;20207;-68
2021/10/07 03:04:21;;;;;;;3.13;2.30;;;6.70;99.90;;;;;;4968223;28;20220;-69
2021/10/07 03:06:47;;;;;;;2.90;2.23;;;6.60;99.90;;;;;;4971108;28;20193;-70
2021/10/07 03:09:12;;;;;;;2.53;2.07;;;6.60;99.90;;;;;;4965407;28;20189;-70
2021/10/07 03:11:38;;;;;;;2.73;1.87;;;6.60;99.90;;;;;;4964714;28;20219;-67
2021/10/07 03:14:04;;;;;;;2.87;2.17;;;6.60;99.90;;;;;;4964207;28;20220;-68
2021/10/07 03:16:29;;;;;;;2.87;2.10;;;6.60;99.90;;;;;;4965323;28;20217;-68
2021/10/07 03:18:55;;;;;;;4.90;2.03;;;6.60;99.90;;;;;;4966957;28;20606;-69
2021/10/07 03:21:21;;;;;;;3.37;2.17;;;6.60;99.90;;;;;;4967374;28;20207;-67
2021/10/07 03:23:46;;;;;;;2.30;2.10;;;6.60;99.90;;;;;;4964698;28;20267;-69
2021/10/07 03:26:12;;;;;;;4.07;2.13;;;6.60;99.90;;;;;;4965682;28;20588;-70
2021/10/07 03:28:37;;;;;;;1.90;1.80;;;6.50;99.90;;;;;;4972612;28;20185;-67
2021/10/07 03:31:03;;;;;;;3.60;2.47;;;6.50;99.90;;;;;;4965063;28;20221;-70
2021/10/07 03:33:28;;;;;;;1.93;1.77;;;6.50;99.90;;;;;;4964656;28;20188;-70
2021/10/07 03:35:54;;;;;;;4.13;2.53;;;6.50;99.90;;;;;;4972741;28;20176;-70
2021/10/07 03:38:20;;;;;;;2.30;2.10;;;6.50;99.90;;;;;;4965100;28;20653;-70
2021/10/07 03:40:45;;;;;;;4.30;2.47;;;6.50;99.90;;;;;;4966652;28;20199;-69
2021/10/07 03:43:11;;;;;;;2.83;2.50;;;6.50;99.90;;;;;;4966332;28;20220;-70
2021/10/07 03:45:36;;;;;;;3.40;2.40;;;6.50;99.90;;;;;;4965693;28;20192;-68
2021/10/07 03:48:02;;;;;;;5.13;2.87;;;6.50;99.90;;;;;;4968423;28;20215;-69
2021/10/07 03:50:28;;;;;;;4.47;2.93;;;6.40;99.90;;;;;;4976237;28;20200;-70
2021/10/07 03:52:54;;;;;;;3.90;2.90;;;6.40;99.90;;;;;;4969552;28;20424;-71
2021/10/07 03:55:19;;;;;;;4.80;2.90;;;6.40;99.90;;;;;;4969933;28;20602;-68
2021/10/07 03:57:45;;;;;;;6.97;3.27;;;6.40;99.90;;;;;;4975352;28;20217;-68
2021/10/07 04:00:11;;;;;;;4.37;3.00;;;6.30;99.90;;;;;;4969181;28;20192;-72
2021/10/07 04:02:37;;;;;;;4.60;3.00;;;6.40;99.90;;;;;;4967903;28;20279;-68
2021/10/07 04:05:03;;;;;;;3.70;2.97;;;6.40;99.90;;;;;;4969076;28;20180;-70
2021/10/07 04:07:29;;;;;;;3.70;3.10;;;6.30;99.90;;;;;;4970934;28;20176;-69
2021/10/07 04:09:54;;;;;;;5.90;2.93;;;6.40;99.90;;;;;;4968612;28;20275;-73
2021/10/07 04:12:20;;;;;;;3.50;2.80;;;6.40;99.90;;;;;;4966838;28;20211;-68
2021/10/07 04:14:45;;;;;;;4.00;2.80;;;6.40;99.90;;;;;;4967319;28;20189;-70
2021/10/07 04:17:11;;;;;;;4.20;2.73;;;6.30;99.90;;;;;;4967131;28;20221;-71
2021/10/07 04:19:36;;;;;;;4.53;2.87;;;6.20;99.90;;;;;;4974343;28;20184;-66
2021/10/07 04:22:02;;;;;;;2.80;2.50;;;6.10;99.90;;;;;;4967716;28;20208;-70
2021/10/07 04:24:28;;;;;;;2.33;2.10;;;6.10;99.90;;;;;;4977569;28;20185;-68
2021/10/07 04:26:53;;;;;;;3.70;2.53;;;6.20;99.90;;;;;;4968527;28;20227;-68
2021/10/07 04:29:19;;;;;;;2.50;2.17;;;6.20;99.90;;;;;;4974652;28;20451;-69
2021/10/07 04:31:44;;;;;;;3.10;2.40;;;6.30;99.90;;;;;;4966300;28;20619;-67
2021/10/07 04:34:10;;;;;;;4.67;1.73;;;6.30;99.90;;;;;;4972708;28;20184;-69
2021/10/07 04:36:36;;;;;;;3.90;1.90;;;6.20;99.90;;;;;;4968184;28;20267;-69
2021/10/07 04:39:03;;;;;;;2.40;2.03;;;6.30;99.90;;;;;;4968307;28;20181;-69
2021/10/07 04:41:29;;;;;;;4.73;2.07;;;6.30;99.90;;;;;;4967237;28;20619;-68
2021/10/07 04:43:54;;;;;;;2.67;2.10;;;6.30;99.90;;;;;;4966512;28;20185;-70
2021/10/07 04:46:22;;;;;;;2.50;1.70;;;6.20;99.90;;;;;;4969139;28;20817;-67
2021/10/07 04:48:48;;;;;;;2.70;2.30;;;6.20;99.90;;;;;;4980383;28;20180;-67
2021/10/07 04:51:14;;;;;;;2.77;1.90;;;6.10;99.90;;;;;;4970609;28;20227;-69
2021/10/07 04:53:40;;;;;;;3.30;1.70;;;6.10;99.90;;;;;;4966723;28;20193;-71
2021/10/07 04:56:06;;;;;;;1.83;1.70;;;6.10;99.90;;;;;;4967900;28;20213;-69
2021/10/07 04:58:31;;;;;;;2.23;1.80;;;6.20;99.90;;;;;;4967780;28;20267;-70
2021/10/07 05:00:57;;;;;;;2.97;2.17;;;6.10;99.90;;;;;;4971625;28;20203;-66
2021/10/07 05:03:23;;;;;;;2.33;1.80;;;6.20;99.90;;;;;;4966606;28;20228;-69
2021/10/07 05:05:48;;;;;;;2.20;2.00;;;6.20;99.90;;;;;;4974305;28;20185;-66
2021/10/07 05:08:14;;;;;;;3.07;2.20;;;6.30;99.90;;;;;;4967174;28;20185;-67
2021/10/07 05:10:40;;;;;;;2.37;1.93;;;6.10;99.90;;;;;;4967627;28;20247;-67
2021/10/07 05:13:06;;;;;;;2.67;2.10;;;6.00;99.90;;;;;;4966542;28;20208;-66
2021/10/07 05:15:32;;;;;;;3.60;2.10;;;6.10;99.90;;;;;;4967568;28;20280;-70
2021/10/07 05:17:57;;;;;;;1.97;1.80;;;6.10;99.90;;;;;;4967124;28;20216;-68
2021/10/07 05:20:23;;;;;;;2.97;2.30;;;6.00;99.90;;;;;;4967328;28;20263;-68
2021/10/07 05:22:49;;;;;;;2.30;2.10;;;6.00;99.90;;;;;;4966523;28;20260;-68
2021/10/07 05:25:14;;;;;;;2.27;2.07;;;6.00;99.90;;;;;;4971936;28;20538;-71
2021/10/07 05:27:40;;;;;;;2.23;2.03;;;6.00;99.90;;;;;;4969204;28;20189;-69
2021/10/07 05:30:07;;;;;;;2.53;2.00;;;5.90;99.90;;;;;;4967119;28;20272;-72
2021/10/07 05:32:33;;;;;;;3.43;2.37;;;6.00;99.90;;;;;;4966256;28;20863;-71
2021/10/07 05:34:59;;;;;;;3.40;2.50;;;5.90;99.90;;;;;;4969625;28;20194;-70
2021/10/07 05:37:27;;;;;;;5.83;2.60;;;5.90;99.90;;;;;;4966521;28;20236;-71
2021/10/07 05:39:52;;;;;;;2.87;2.57;;;5.70;99.90;;;;;;4967056;28;20656;-69
2021/10/07 05:42:18;;;;;;;2.73;2.20;;;5.70;99.90;;;;;;4966199;28;20213;-69
2021/10/07 05:44:43;;;;;;;3.40;2.17;;;5.60;99.90;;;;;;4966985;28;20181;-69
2021/10/07 05:47:09;;;;;;;5.50;2.27;;;5.70;99.90;;;;;;4966857;28;20224;-68
2021/10/07 05:49:34;;;;;;;2.57;2.23;;;5.70;99.90;;;;;;4974650;28;20688;-71
2021/10/07 05:52:01;;;;;;;4.00;2.07;;;5.80;99.90;;;;;;4971335;28;20712;-71
2021/10/07 05:54:26;;;;;;;3.77;2.23;;;5.90;99.90;;;;;;4965695;28;20652;-66
2021/10/07 05:56:52;;;;;;;4.20;2.33;;;5.90;99.90;;;;;;4973550;28;20204;-70
2021/10/07 05:59:18;;;;;;;4.27;2.43;;;6.00;99.90;;;;;;4959603;28;20192;-69
2021/10/07 06:01:43;;;;;;;3.30;2.40;;;5.80;99.90;;;;;;4962949;28;20251;-70
2021/10/07 06:04:09;;;;;;;2.57;2.03;;;5.70;99.90;;;;;;4965495;28;20192;-66
2021/10/07 06:06:35;;;;;;;5.30;3.03;;;5.80;99.90;;;;;;4965598;28;20505;-69
2021/10/07 06:09:01;;;;;;;5.63;3.00;;;5.70;99.90;;;;;;4965467;28;20927;-71
2021/10/07 06:11:26;;;;;;;6.63;2.97;;;5.60;99.90;;;;;;4965512;28;20288;-68
2021/10/07 06:13:52;;;;;;;4.37;3.00;;;5.70;99.90;;;;;;4968039;28;20217;-65
2021/10/07 06:16:19;;;;;;;3.83;3.10;;;5.80;99.90;;;;;;4967735;28;20746;-68
2021/10/07 06:18:46;;;;;;;3.80;2.73;;;6.00;99.90;;;;;;4965528;28;20654;-68
2021/10/07 06:21:12;;;;;;;4.60;3.47;;;6.10;99.90;;;;;;4968992;28;20341;-69
2021/10/07 06:23:41;;;;;;;5.97;3.40;;;6.10;99.90;;;;;;4965111;28;20183;-70
2021/10/07 06:26:07;;;;;;;5.63;3.20;;;6.10;99.90;;;;;;4966046;28;20608;-67
2021/10/07 06:28:33;;;;;;;5.63;3.47;;;6.20;99.90;;;;;;4965416;28;20200;-67
2021/10/07 06:30:59;;;;;;;5.57;3.50;;;6.30;99.90;;;;;;4965872;28;20213;-66
2021/10/07 06:33:24;;;;;;;5.47;4.17;;;6.30;99.90;;;;;;4965980;28;20322;-69
2021/10/07 06:35:52;;;;;;;5.50;3.73;;;6.40;99.90;;;;;;4969432;28;20199;-67
2021/10/07 06:38:18;;;;;;;5.97;4.00;;;6.50;99.90;;;;;;4971719;28;20189;-67
2021/10/07 06:40:44;;;;;;;5.63;3.50;;;6.60;99.90;;;;;;4965758;28;20201;-66
2021/10/07 06:43:09;;;;;;;6.73;4.37;;;6.70;99.90;;;;;;4965279;28;20196;-70
2021/10/07 06:45:35;;;;;;;8.97;4.80;;;6.70;99.90;;;;;;4965863;28;20185;-67
2021/10/07 06:48:00;;;;;;;7.97;4.33;;;6.80;99.90;;;;;;4965646;28;20181;-69
2021/10/07 06:50:26;;;;;;;6.40;4.80;;;6.90;99.90;;;;;;4969135;28;20172;-67
2021/10/07 06:52:51;;;;;;;5.37;4.37;;;7.00;99.90;;;;;;4965027;28;20203;-68
2021/10/07 06:55:17;;;;;;;6.30;4.57;;;7.10;99.90;;;;;;4965778;28;20185;-71
2021/10/07 06:57:43;;;;;;;7.67;4.80;;;7.20;99.90;;;;;;4965664;28;20215;-70
2021/10/07 07:00:10;;;;;;;9.33;4.77;;;7.40;99.90;;;;;;4964293;28;20184;-70
2021/10/07 07:02:40;;;;;;;5.97;4.70;;;7.40;99.90;;;;;;4969187;28;20580;-67
2021/10/07 07:05:07;;;;;;;6.50;5.00;;;7.60;99.90;;;;;;4968426;28;20663;-65
2021/10/07 07:07:33;;;;;;;6.67;4.80;;;7.80;99.90;;;;;;4965546;28;20532;-70
2021/10/07 07:09:59;;;;;;;6.70;4.67;;;7.80;99.90;;;;;;4965369;28;20188;-70
2021/10/07 07:12:25;;;;;;;6.93;5.00;;;8.00;99.90;;;;;;4964934;28;20213;-68
2021/10/07 07:14:50;;;;;;;6.30;4.83;;;8.10;99.90;;;;;;4965595;28;20221;-70
2021/10/07 07:17:16;;;;;;;6.03;4.70;;;8.20;99.90;;;;;;4965250;28;20255;-68
2021/10/07 07:19:44;;;;;;;6.07;4.33;;;8.30;99.90;;;;;;4965445;28;20173;-69
2021/10/07 07:22:10;;;;;;;7.00;4.63;;;8.40;99.90;;;;;;4969673;28;20192;-68
2021/10/07 07:24:36;;;;;;;6.67;4.83;;;8.60;99.90;;;;;;4965705;28;20990;-67
2021/10/07 07:27:01;;;;;;;7.50;4.43;;;8.70;99.90;;;;;;4965341;28;20581;-72
2021/10/07 07:29:27;;;;;;;7.87;4.67;;;8.80;99.90;;;;;;4965246;28;20207;-66
2021/10/07 07:31:52;;;;;;;6.20;4.67;;;8.90;99.90;;;;;;4964239;28;20243;-67
2021/10/07 07:34:18;;;;;;;5.67;4.23;;;9.00;99.90;;;;;;4965299;28;20192;-68
2021/10/07 07:36:43;;;;;;;6.60;4.30;;;9.10;99.90;;;;;;4965190;28;20606;-70
2021/10/07 07:39:09;;;;;;;6.77;4.57;;;9.20;99.90;;;;;;4965129;28;20185;-71
2021/10/07 07:41:36;;;;;;;8.37;4.93;;;9.40;99.90;;;;;;4964473;28;20284;-68
2021/10/07 07:44:03;;;;;;;7.00;4.37;;;9.40;99.90;;;;;;4965141;28;20200;-71
2021/10/07 07:46:30;;;;;;;4.93;4.00;;;9.50;99.90;;;;;;4965367;28;20188;-68
2021/10/07 07:48:56;;;;;;;4.83;4.20;;;9.70;99.90;;;;;;4970773;28;20180;-69
2021/10/07 07:51:22;;;;;;;5.57;4.53;;;9.80;99.90;;;;;;4964450;28;20203;-69
2021/10/07 07:53:47;;;;;;;5.23;4.03;;;9.90;99.90;;;;;;4964226;28;20223;-71
2021/10/07 07:56:14;;;;;;;5.57;3.70;;;10.00;99.90;;;;;;4965019;28;20360;-70
2021/10/07 07:58:40;;;;;;;5.77;3.93;;;10.10;99.90;;;;;;4964961;28;20192;-68
2021/10/07 08:01:06;;;;;;;6.23;4.10;;;10.20;99.90;;;;;;4963637;28;20585;-68
2021/10/07 08:03:33;;;;;;;5.87;4.20;;;10.30;99.90;;;;;;4965765;28;20192;-69
2021/10/07 08:05:59;;;;;;;4.67;4.10;;;10.40;99.90;;;;;;4974378;28;20172;-72
2021/10/07 08:08:24;;;;;;;4.03;3.57;;;10.60;99.90;;;;;;4966028;28;20185;-68
2021/10/07 08:10:50;;;;;;;4.20;3.63;;;10.60;99.90;;;;;;4964991;28;20343;-68
2021/10/07 08:13:16;;;;;;;4.90;4.23;;;10.80;99.90;;;;;;4969037;28;20192;-69
2021/10/07 08:15:42;;;;;;;5.00;3.80;;;10.80;99.90;;;;;;4964935;28;20181;-66
2021/10/07 08:18:08;;;;;;;6.33;4.23;;;10.90;99.90;;;;;;4965388;28;20577;-71
2021/10/07 08:20:33;;;;;;;6.03;3.80;;;11.00;99.90;;;;;;4964545;28;20189;-67
2021/10/07 08:22:59;;;;;;;4.90;3.35;;;11.20;99.90;;;;;;4964606;28;20173;-68
2021/10/07 08:25:25;;;;;;;6.25;3.90;;;11.30;99.90;;;;;;4964381;28;20223;-68
2021/10/07 08:27:51;;;;;;;5.35;3.45;;;11.40;99.90;;;;;;4965450;28;20177;-70
2021/10/07 08:30:17;;;;;;;4.97;3.80;;;11.50;99.90;;;;;;4964604;28;20232;-68
2021/10/07 08:32:44;;;;;;;4.03;3.63;;;11.60;99.90;;;;;;4971229;28;20231;-70
2021/10/07 08:35:10;;;;;;;6.85;3.85;;;11.80;99.90;;;;;;4968458;28;20177;-70
2021/10/07 08:37:35;;;;;;;3.67;3.13;;;12.00;99.90;;;;;;4968133;28;20212;-69
2021/10/07 08:40:04;;;;;;;4.07;3.70;;;12.00;99.90;;;;;;4968574;28;20173;-70
2021/10/07 08:42:31;;;;;;;4.13;3.63;;;12.10;99.90;;;;;;4970483;28;20216;-69
2021/10/07 08:44:56;;;;;;;5.35;3.50;;;12.20;99.90;;;;;;4967864;28;20181;-69
2021/10/07 08:47:23;;;;;;;4.43;3.33;;;12.40;99.90;;;;;;4970415;28;20184;-68
2021/10/07 08:49:51;;;;;;;3.85;3.20;;;12.60;99.90;;;;;;4967654;28;20530;-68
2021/10/07 08:52:17;;;;;;;4.53;3.22;;;12.60;99.90;;;;;;4967426;28;20212;-69
2021/10/07 08:54:42;;;;;;;3.78;3.30;;;12.80;99.90;;;;;;4975084;28;20189;-68
2021/10/07 08:57:08;;;;;;;4.80;3.20;;;13.00;99.90;;;;;;4967815;28;20549;-68
2021/10/07 08:59:36;;;;;;;3.33;2.80;;;13.10;99.90;;;;;;4967844;28;20244;-69
2021/10/07 09:02:04;;;;;;;5.43;3.22;;;13.20;99.90;;;;;;4967342;28;20232;-70
2021/10/07 09:04:34;;;;;;;4.35;2.95;;;13.30;99.90;;;;;;4967532;28;20703;-67
2021/10/07 09:07:04;;;;;;;5.93;2.95;;;13.20;99.90;;;;;;4967850;28;20192;-69
2021/10/07 09:09:31;;;;;;;3.08;2.78;;;13.30;99.90;;;;;;4967376;28;20192;-66
2021/10/07 09:12:00;;;;;;;3.30;2.95;;;13.50;99.90;;;;;;4967016;28;20220;-69
2021/10/07 09:14:34;;;;;;;3.35;2.70;;;13.60;99.90;;;;;;4967257;28;20189;-70
2021/10/07 09:17:01;;;;;;;3.38;2.90;;;13.60;99.90;;;;;;4967581;28;20255;-71
2021/10/07 09:19:32;;;;;;;3.92;2.95;;;13.70;99.90;;;;;;4969875;28;20577;-68
2021/10/07 09:22:11;;;;;;;4.43;2.63;;;13.80;99.90;;;;;;4970360;28;20201;-70
2021/10/07 09:24:45;;;;;;;4.18;3.00;;;14.00;99.90;;;;;;4980478;28;20181;-70
2021/10/07 09:27:24;;;;;;;4.40;2.97;;;14.20;99.90;;;;;;4972590;28;20191;-70
2021/10/07 09:29:58;;;;;;;3.42;2.80;;;14.20;99.90;;;;;;4967025;28;20189;-68
2021/10/07 09:32:31;;;;;;;3.35;3.05;;;14.10;99.90;;;;;;4966838;28;20908;-68
2021/10/07 09:35:02;;;;;;;2.78;2.42;;;14.10;99.90;;;;;;4966966;28;20187;-69
2021/10/07 09:37:38;;;;;;;6.55;3.08;;;14.10;99.90;;;;;;4967807;28;20279;-68
2021/10/07 09:40:11;;;;;;;4.43;2.85;;;14.20;99.90;;;;;;4970326;28;20262;-70
2021/10/07 09:42:40;;;;;;;3.67;3.03;;;14.30;99.90;;;;;;4966172;28;20231;-68
2021/10/07 09:45:10;;;;;;;3.58;2.72;;;14.30;99.90;;;;;;4966637;28;20283;-65
2021/10/07 09:47:42;;;;;;;4.60;2.92;;;14.50;99.90;;;;;;4967090;28;20264;-66
2021/10/07 09:50:24;;;;;;;3.10;2.35;;;14.50;99.90;;;;;;4966644;28;20656;-66
2021/10/07 09:52:53;;;;;;;3.40;2.30;;;14.50;99.90;;;;;;4966473;28;20564;-68
2021/10/07 09:55:22;;;;;;;2.80;2.00;;;14.60;99.90;;;;;;4966994;28;20184;-68
2021/10/07 09:57:52;;;;;;;1.58;1.45;;;14.70;99.90;;;;;;4966767;28;20528;-71
2021/10/07 10:00:18;;;;;;;2.38;1.70;;;14.70;99.90;;;;;;4966639;28;20181;-69
2021/10/07 10:02:45;;;;;;;1.77;1.40;;;14.70;99.90;;;;;;4966057;28;20764;-68
2021/10/07 10:05:13;;;;;;;2.42;1.48;;;14.70;99.90;;;;;;4972980;28;20208;-68
2021/10/07 10:07:40;;;;;;;1.85;1.67;;;14.80;99.90;;;;;;4966726;28;20216;-68
2021/10/07 10:10:06;;;;;;;1.50;1.27;;;14.80;99.90;;;;;;4966122;28;20267;-71
2021/10/07 10:12:32;;;;;;;2.65;1.67;;;14.80;99.90;;;;;;4966009;28;20201;-68
2021/10/07 10:15:00;;;;;;;1.52;1.42;;;14.80;99.90;;;;;;4969829;28;20522;-69
2021/10/07 10:17:27;;;;;;;1.67;0.95;;;14.80;99.90;;;;;;4966270;28;20401;-69
2021/10/07 10:19:54;;;;;;;2.35;1.40;;;14.80;99.90;;;;;;4966187;28;20184;-69
2021/10/07 10:22:22;;;;;;;2.53;1.40;;;14.90;99.90;;;;;;4965850;28;20295;-70
2021/10/07 10:24:49;;;;;;;1.98;1.40;;;15.00;99.90;;;;;;4966366;28;20184;-66
2021/10/07 10:27:15;;;;;;;2.10;1.80;;;15.10;99.90;;;;;;4966554;28;20220;-68
2021/10/07 10:29:41;;;;;;;2.30;1.52;;;15.10;99.90;;;;;;4969943;28;20312;-69
2021/10/07 10:32:07;;;;;;;2.30;1.60;;;15.10;99.90;;;;;;4965555;28;20687;-67
2021/10/07 10:34:46;;;;;;;2.80;1.60;;;15.00;99.90;;;;;;4966129;28;20209;-69
2021/10/07 10:37:14;;;;;;;1.83;1.60;;;15.00;99.90;;;;;;4967080;28;20555;-66
2021/10/07 10:39:47;;;;;;;1.60;1.33;;;14.90;99.90;;;;;;4965807;28;20678;-67
2021/10/07 10:42:16;;;;;;;3.60;1.55;;;14.90;99.90;;;;;;4968843;28;20195;-69
2021/10/07 10:44:50;;;;;;;2.20;1.20;;;15.00;99.90;;;;;;4971899;28;20267;-69
2021/10/07 10:47:22;;;;;;;2.00;1.70;;;15.20;99.90;;;;;;4966202;28;20200;-66
2021/10/07 10:49:50;;;;;;;2.05;1.85;;;15.10;99.90;;;;;;4965365;28;20675;-68
2021/10/07 10:52:20;;;;;;;2.47;1.30;;;15.10;99.90;;;;;;4965366;28;20216;-68
2021/10/07 10:54:48;;;;;;;2.47;1.58;;;15.10;99.90;;;;;;4970585;28;20195;-68
2021/10/07 10:57:44;;;;;;;1.90;1.80;;;15.10;99.90;;;;;;4964654;28;20204;-69
2021/10/07 11:00:42;;;;;;;3.22;1.88;;;14.90;99.90;;;;;;4967788;28;20531;-69
2021/10/07 11:03:08;;;;;;;2.00;1.80;;;15.00;99.90;;;;;;4956827;28;20224;-69
2021/10/07 11:05:41;;;;;;;3.75;2.30;;;15.20;99.90;;;;;;4965095;28;20704;-69
2021/10/07 11:08:21;;;;;;;4.93;2.88;;;15.20;99.90;;;;;;4964859;28;20189;-67
2021/10/07 11:10:52;;;;;;;3.10;2.30;;;15.20;99.90;;;;;;4969916;28;20200;-67
2021/10/07 11:13:20;;;;;;;2.50;2.30;;;15.40;99.90;;;;;;4963993;28;20890;-69
2021/10/07 11:15:53;;;;;;;2.80;2.20;;;15.60;99.90;;;;;;4965660;28;20189;-67
2021/10/07 11:18:20;;;;;;;3.72;2.20;;;15.60;99.90;;;;;;4967562;28;20596;-69
2021/10/07 11:20:54;;;;;;;4.05;2.55;;;15.60;99.90;;;;;;4968234;28;20223;-70
2021/10/07 11:23:19;;;;;;;3.15;2.10;;;15.70;99.90;;;;;;4967450;28;20187;-69
2021/10/07 11:25:53;;;;;;;2.40;2.20;;;15.80;99.90;;;;;;4968964;28;20180;-68
2021/10/07 11:28:47;;;;;;;3.55;2.35;;;15.60;99.90;;;;;;4970617;28;20207;-69
2021/10/07 11:31:15;;;;;;;1.80;1.70;;;15.70;99.90;;;;;;4966917;28;20232;-69
2021/10/07 11:33:43;;;;;;;3.35;1.30;;;15.60;99.90;;;;;;4970414;28;20199;-68
2021/10/07 11:36:14;;;;;;;1.50;1.30;;;15.70;99.90;;;;;;4973551;28;20192;-69
2021/10/07 11:38:43;;;;;;;1.52;1.30;;;15.60;99.90;;;;;;4970311;28;20553;-70
2021/10/07 11:41:10;;;;;;;2.30;1.52;;;15.70;99.90;;;;;;4969696;28;20288;-69
2021/10/07 11:43:37;;;;;;;1.98;1.35;;;15.60;99.90;;;;;;4954829;28;20177;-70
2021/10/07 11:46:12;;;;;;;1.90;1.58;;;15.70;99.90;;;;;;4964059;28;20184;-71
2021/10/07 11:48:47;;;;;;;1.60;1.50;;;15.80;99.90;;;;;;4963644;28;20189;-69
2021/10/07 11:51:17;;;;;;;2.17;1.90;;;16.00;99.90;;;;;;4975571;28;20192;-69
2021/10/07 11:53:45;;;;;;;2.08;1.88;;;16.00;99.90;;;;;;4963888;28;20213;-69
2021/10/07 11:56:16;;;;;;;2.35;1.65;;;15.90;99.90;;;;;;4964611;28;20304;-67
2021/10/07 11:58:51;;;;;;;3.28;1.92;;;15.80;99.90;;;;;;4964216;28;20633;-70
2021/10/07 12:01:18;;;;;;;1.63;1.52;;;15.90;99.90;;;;;;4966214;28;20208;-70
2021/10/07 12:03:44;;;;;;;2.28;1.95;;;16.00;99.90;;;;;;4963968;28;20290;-70
2021/10/07 12:06:12;;;;;;;1.80;1.55;;;16.00;99.90;;;;;;4964903;28;20208;-71
2021/10/07 12:08:43;;;;;;;1.48;1.33;;;16.10;99.90;;;;;;4970460;28;20177;-69
2021/10/07 12:11:14;;;;;;;1.45;1.35;;;16.00;99.90;;;;;;4972789;28;20204;-67
2021/10/07 12:13:45;;;;;;;3.95;1.63;;;16.10;99.90;;;;;;4972077;28;20200;-67
2021/10/07 12:16:17;;;;;;;2.13;1.50;;;16.10;99.90;;;;;;4977856;28;20188;-70
2021/10/07 12:18:44;;;;;;;1.90;1.42;;;16.00;99.90;;;;;;4978053;28;20177;-68
2021/10/07 12:21:18;;;;;;;2.28;1.77;;;16.10;99.90;;;;;;4980898;28;20666;-66
2021/10/07 12:24:01;;;;;;;2.38;1.60;;;16.20;99.90;;;;;;4973304;28;20223;-67
2021/10/07 12:26:49;;;;;;;1.77;1.40;;;16.10;99.90;;;;;;4974348;28;20525;-71
2021/10/07 12:29:25;;;;;;;2.10;1.20;;;16.10;99.90;;;;;;4974224;28;20244;-68
2021/10/07 12:32:02;;;;;;;2.47;1.65;;;16.40;99.90;;;;;;4972753;28;20322;-67
2021/10/07 12:34:32;;;;;;;1.38;1.27;;;16.30;99.90;;;;;;4970680;28;20235;-67
2021/10/07 12:37:00;;;;;;;3.03;1.80;;;16.20;99.90;;;;;;4972032;28;20264;-68
2021/10/07 12:39:38;;;;;;;1.70;1.60;;;16.30;99.90;;;;;;4975953;28;20553;-71
2021/10/07 12:42:13;;;;;;;3.40;1.50;;;16.20;99.90;;;;;;4971785;28;20731;-68
2021/10/07 12:44:45;;;;;;;1.95;1.85;;;16.30;99.90;;;;;;4975885;28;20192;-69
2021/10/07 12:47:16;;;;;;;2.45;1.80;;;16.30;99.90;;;;;;4967644;28;20234;-66
2021/10/07 12:49:50;;;;;;;3.10;1.85;;;16.10;99.90;;;;;;4967505;28;20181;-69
2021/10/07 12:52:38;;;;;;;2.85;1.83;;;16.10;99.90;;;;;;4967120;28;20223;-67
2021/10/07 12:55:08;;;;;;;1.95;1.63;;;16.10;99.90;;;;;;4967690;28;20185;-68
2021/10/07 12:57:56;;;;;;;2.88;1.23;;;16.20;99.90;;;;;;4978916;28;20216;-69